createdAt,value
2018-07-07T00:00:43.178Z,937.90
2018-07-07T00:01:43.108Z,937.96
2018-07-07T00:02:43.132Z,937.91
2018-07-07T00:03:43.152Z,937.95
2018-07-07T00:04:43.141Z,937.96
2018-07-07T00:05:43.326Z,937.94
2018-07-07T00:06:43.178Z,937.95
2018-07-07T00:07:43.181Z,937.91
2018-07-07T00:08:43.226Z,937.92
2018-07-07T00:09:43.214Z,937.89
2018-07-07T00:10:43.358Z,937.89
2018-07-07T00:11:43.266Z,937.92
2018-07-07T00:12:43.256Z,937.94
2018-07-07T00:13:43.267Z,937.92
2018-07-07T00:14:43.296Z,937.92
2018-07-07T00:15:43.474Z,937.95
2018-07-07T00:16:43.310Z,938.00
2018-07-07T00:17:43.353Z,937.98
2018-07-07T00:18:43.340Z,938.04
2018-07-07T00:19:43.361Z,938.04
2018-07-07T00:20:43.484Z,938.06
2018-07-07T00:21:43.391Z,938.06
2018-07-07T00:22:43.396Z,938.09
2018-07-07T00:23:43.431Z,938.12
2018-07-07T00:24:43.436Z,938.15
2018-07-07T00:25:43.598Z,938.17
2018-07-07T00:26:43.485Z,938.22
2018-07-07T00:27:43.474Z,938.24
2018-07-07T00:28:43.514Z,938.20
2018-07-07T00:29:43.504Z,938.18
2018-07-07T00:30:43.667Z,938.15
2018-07-07T00:31:43.557Z,938.18
2018-07-07T00:32:43.563Z,938.11
2018-07-07T00:33:43.577Z,938.13
2018-07-07T00:34:43.585Z,938.11
2018-07-07T00:35:43.689Z,938.12
2018-07-07T00:36:43.629Z,938.15
2018-07-07T00:37:43.624Z,938.10
2018-07-07T00:38:43.662Z,938.11
2018-07-07T00:39:43.672Z,938.07
2018-07-07T00:40:43.806Z,938.07
2018-07-07T00:41:43.680Z,938.07
2018-07-07T00:42:43.689Z,938.07
2018-07-07T00:43:43.704Z,938.08
2018-07-07T00:44:43.716Z,938.07
2018-07-07T00:45:43.730Z,938.07
2018-07-07T00:46:43.904Z,938.10
2018-07-07T00:47:43.760Z,938.07
2018-07-07T00:48:43.800Z,938.11
2018-07-07T00:49:43.786Z,938.09
2018-07-07T00:50:43.798Z,938.10
2018-07-07T00:51:43.827Z,938.11
2018-07-07T00:52:43.932Z,938.10
2018-07-07T00:53:43.876Z,938.12
2018-07-07T00:54:43.872Z,938.08
2018-07-07T00:55:43.873Z,938.06
2018-07-07T00:56:43.890Z,938.08
2018-07-07T00:57:44.076Z,938.09
2018-07-07T00:58:43.918Z,938.12
2018-07-07T00:59:43.930Z,938.09
2018-07-07T01:00:43.970Z,938.12
2018-07-07T01:01:43.972Z,938.08
2018-07-07T01:02:44.122Z,938.07
2018-07-07T01:03:43.984Z,938.09
2018-07-07T01:04:44.010Z,938.10
2018-07-07T01:05:44.014Z,938.09
2018-07-07T01:06:44.031Z,938.09
2018-07-07T01:07:44.042Z,938.04
2018-07-07T01:08:44.054Z,938.06
2018-07-07T01:09:44.073Z,938.03
2018-07-07T01:10:44.086Z,938.04
2018-07-07T01:11:44.104Z,938.02
2018-07-07T01:12:44.118Z,938.06
2018-07-07T01:13:44.133Z,938.06
2018-07-07T01:14:44.146Z,938.07
2018-07-07T01:15:44.177Z,938.09
2018-07-07T01:16:44.168Z,938.09
2018-07-07T01:17:44.315Z,938.11
2018-07-07T01:18:44.196Z,938.10
2018-07-07T01:19:44.209Z,938.10
2018-07-07T01:20:44.249Z,938.14
2018-07-07T01:21:44.238Z,938.14
2018-07-07T01:22:44.257Z,938.14
2018-07-07T01:23:44.275Z,938.14
2018-07-07T01:24:44.286Z,938.15
2018-07-07T01:25:44.305Z,938.17
2018-07-07T01:26:44.330Z,938.12
2018-07-07T01:27:44.321Z,938.11
2018-07-07T01:28:44.335Z,938.11
2018-07-07T01:29:44.351Z,938.09
2018-07-07T01:30:44.388Z,938.09
2018-07-07T01:31:44.373Z,938.10
2018-07-07T01:32:44.421Z,938.10
2018-07-07T01:33:44.435Z,938.14
2018-07-07T01:34:44.418Z,938.16
2018-07-07T01:35:44.430Z,938.17
2018-07-07T01:36:44.472Z,938.16
2018-07-07T01:37:44.641Z,938.13
2018-07-07T01:38:44.466Z,938.09
2018-07-07T01:39:44.513Z,938.06
2018-07-07T01:40:44.500Z,938.04
2018-07-07T01:41:44.528Z,938.05
2018-07-07T01:42:44.701Z,938.05
2018-07-07T01:43:44.570Z,938.03
2018-07-07T01:44:44.560Z,938.06
2018-07-07T01:45:44.569Z,938.05
2018-07-07T01:46:44.592Z,938.08
2018-07-07T01:47:44.778Z,938.08
2018-07-07T01:48:44.705Z,938.05
2018-07-07T01:49:44.664Z,938.01
2018-07-07T01:50:44.656Z,938.06
2018-07-07T01:51:44.654Z,938.02
2018-07-07T01:52:44.767Z,938.07
2018-07-07T01:53:44.706Z,938.01
2018-07-07T01:54:44.698Z,938.06
2018-07-07T01:55:44.704Z,938.07
2018-07-07T01:56:44.720Z,938.03
2018-07-07T01:57:44.831Z,938.11
2018-07-07T01:58:44.755Z,938.14
2018-07-07T01:59:44.784Z,938.11
2018-07-07T02:00:44.774Z,938.12
2018-07-07T02:01:44.788Z,938.16
2018-07-07T02:02:44.925Z,938.16
2018-07-07T02:03:44.828Z,938.10
2018-07-07T02:04:44.834Z,938.09
2018-07-07T02:05:44.875Z,938.06
2018-07-07T02:06:44.854Z,938.03
2018-07-07T02:07:45.032Z,938.00
2018-07-07T02:08:44.913Z,938.00
2018-07-07T02:09:44.895Z,937.97
2018-07-07T02:10:44.932Z,937.96
2018-07-07T02:11:44.936Z,937.94
2018-07-07T02:12:45.113Z,937.94
2018-07-07T02:13:44.960Z,937.91
2018-07-07T02:14:44.989Z,937.92
2018-07-07T02:15:44.977Z,937.93
2018-07-07T02:16:45.020Z,937.92
2018-07-07T02:17:45.167Z,937.96
2018-07-07T02:18:45.082Z,937.98
2018-07-07T02:19:45.031Z,937.99
2018-07-07T02:20:45.053Z,937.97
2018-07-07T02:21:45.054Z,937.97
2018-07-07T02:22:45.196Z,937.97
2018-07-07T02:23:45.081Z,937.97
2018-07-07T02:24:45.096Z,937.93
2018-07-07T02:25:45.115Z,937.92
2018-07-07T02:26:45.117Z,937.92
2018-07-07T02:27:45.263Z,937.98
2018-07-07T02:28:45.179Z,937.94
2018-07-07T02:29:45.166Z,937.95
2018-07-07T02:30:45.203Z,937.96
2018-07-07T02:31:45.202Z,937.94
2018-07-07T02:32:45.303Z,937.96
2018-07-07T02:33:45.250Z,937.92
2018-07-07T02:34:45.229Z,938.00
2018-07-07T02:35:45.239Z,937.98
2018-07-07T02:36:45.266Z,937.99
2018-07-07T02:37:45.443Z,938.00
2018-07-07T02:38:45.284Z,937.99
2018-07-07T02:39:45.319Z,937.95
2018-07-07T02:40:45.322Z,937.95
2018-07-07T02:41:45.333Z,937.95
2018-07-07T02:42:45.358Z,937.98
2018-07-07T02:43:45.352Z,937.96
2018-07-07T02:44:45.365Z,937.96
2018-07-07T02:45:45.374Z,937.98
2018-07-07T02:46:45.389Z,937.98
2018-07-07T02:47:45.404Z,937.95
2018-07-07T02:48:45.410Z,937.95
2018-07-07T02:49:45.431Z,937.98
2018-07-07T02:50:45.448Z,937.95
2018-07-07T02:51:45.482Z,937.96
2018-07-07T02:52:45.491Z,937.99
2018-07-07T02:53:45.505Z,937.97
2018-07-07T02:54:45.507Z,937.97
2018-07-07T02:55:45.526Z,937.91
2018-07-07T02:56:45.543Z,937.94
2018-07-07T02:57:45.534Z,937.94
2018-07-07T02:58:45.538Z,937.95
2018-07-07T02:59:45.551Z,937.99
2018-07-07T03:00:45.565Z,937.98
2018-07-07T03:01:45.594Z,937.98
2018-07-07T03:02:45.604Z,937.93
2018-07-07T03:03:45.608Z,937.93
2018-07-07T03:04:45.623Z,937.91
2018-07-07T03:05:45.641Z,937.93
2018-07-07T03:06:45.670Z,937.94
2018-07-07T03:07:45.694Z,937.94
2018-07-07T03:08:45.679Z,937.95
2018-07-07T03:09:45.689Z,937.98
2018-07-07T03:10:45.692Z,937.97
2018-07-07T03:11:45.733Z,937.97
2018-07-07T03:12:45.726Z,937.96
2018-07-07T03:13:45.739Z,937.98
2018-07-07T03:14:45.773Z,937.95
2018-07-07T03:15:45.784Z,937.96
2018-07-07T03:16:45.770Z,937.91
2018-07-07T03:17:45.882Z,937.93
2018-07-07T03:18:45.796Z,937.86
2018-07-07T03:19:45.839Z,937.87
2018-07-07T03:20:45.817Z,937.84
2018-07-07T03:21:45.862Z,937.87
2018-07-07T03:22:45.873Z,937.87
2018-07-07T03:23:45.863Z,937.90
2018-07-07T03:24:45.887Z,937.88
2018-07-07T03:25:45.884Z,937.94
2018-07-07T03:26:45.904Z,937.93
2018-07-07T03:27:46.025Z,937.95
2018-07-07T03:28:45.934Z,937.94
2018-07-07T03:29:45.938Z,937.95
2018-07-07T03:30:45.945Z,937.96
2018-07-07T03:31:45.961Z,937.97
2018-07-07T03:32:45.976Z,937.95
2018-07-07T03:33:45.986Z,938.02
2018-07-07T03:34:45.998Z,937.99
2018-07-07T03:35:46.007Z,937.97
2018-07-07T03:36:46.035Z,938.01
2018-07-07T03:37:46.042Z,937.93
2018-07-07T03:38:46.052Z,937.94
2018-07-07T03:39:46.065Z,937.95
2018-07-07T03:40:46.078Z,937.92
2018-07-07T03:41:46.121Z,937.92
2018-07-07T03:42:46.094Z,937.91
2018-07-07T03:43:46.115Z,937.89
2018-07-07T03:44:46.128Z,937.93
2018-07-07T03:45:46.167Z,937.93
2018-07-07T03:46:46.152Z,937.96
2018-07-07T03:47:46.173Z,937.97
2018-07-07T03:48:46.191Z,937.90
2018-07-07T03:49:46.216Z,937.87
2018-07-07T03:50:46.205Z,937.83
2018-07-07T03:51:46.243Z,937.84
2018-07-07T03:52:46.236Z,937.80
2018-07-07T03:53:46.266Z,937.85
2018-07-07T03:54:46.251Z,937.85
2018-07-07T03:55:46.266Z,937.83
2018-07-07T03:56:46.304Z,937.87
2018-07-07T03:57:46.302Z,937.90
2018-07-07T03:58:46.300Z,937.87
2018-07-07T03:59:46.343Z,937.86
2018-07-07T04:00:46.329Z,937.85
2018-07-07T04:01:46.339Z,937.85
2018-07-07T04:02:46.363Z,937.84
2018-07-07T04:03:46.393Z,937.81
2018-07-07T04:04:46.380Z,937.77
2018-07-07T04:05:46.392Z,937.76
2018-07-07T04:06:46.430Z,937.73
2018-07-07T04:07:46.421Z,937.73
2018-07-07T04:08:46.424Z,937.74
2018-07-07T04:09:46.438Z,937.76
2018-07-07T04:10:46.458Z,937.77
2018-07-07T04:11:46.461Z,937.75
2018-07-07T04:12:46.499Z,937.76
2018-07-07T04:13:46.490Z,937.76
2018-07-07T04:14:46.503Z,937.73
2018-07-07T04:15:46.528Z,937.70
2018-07-07T04:16:46.555Z,937.68
2018-07-07T04:18:46.581Z,937.71
2018-07-07T04:19:46.569Z,937.70
2018-07-07T04:20:46.590Z,937.71
2018-07-07T04:21:46.584Z,937.69
2018-07-07T04:22:46.624Z,937.74
2018-07-07T04:23:46.616Z,937.72
2018-07-07T04:24:46.621Z,937.78
2018-07-07T04:25:46.660Z,937.75
2018-07-07T04:26:46.674Z,937.79
2018-07-07T04:27:46.666Z,937.82
2018-07-07T04:28:46.669Z,937.85
2018-07-07T04:29:46.681Z,937.85
2018-07-07T04:30:46.697Z,937.86
2018-07-07T04:31:46.714Z,937.87
2018-07-07T04:32:46.730Z,937.81
2018-07-07T04:33:46.747Z,937.82
2018-07-07T04:34:46.741Z,937.83
2018-07-07T04:35:46.788Z,937.84
2018-07-07T04:36:46.795Z,937.82
2018-07-07T04:37:46.795Z,937.81
2018-07-07T04:38:46.816Z,937.82
2018-07-07T04:39:46.809Z,937.81
2018-07-07T04:40:46.823Z,937.83
2018-07-07T04:41:46.841Z,937.79
2018-07-07T04:42:46.833Z,937.79
2018-07-07T04:43:46.865Z,937.78
2018-07-07T04:44:46.886Z,937.76
2018-07-07T04:45:46.909Z,937.78
2018-07-07T04:46:46.912Z,937.72
2018-07-07T04:47:47.053Z,937.72
2018-07-07T04:48:46.920Z,937.73
2018-07-07T04:49:46.924Z,937.75
2018-07-07T04:50:46.936Z,937.73
2018-07-07T04:51:46.948Z,937.73
2018-07-07T04:52:47.113Z,937.72
2018-07-07T04:53:46.972Z,937.68
2018-07-07T04:54:46.989Z,937.72
2018-07-07T04:55:47.024Z,937.65
2018-07-07T04:56:47.008Z,937.64
2018-07-07T04:57:47.179Z,937.65
2018-07-07T04:58:47.035Z,937.64
2018-07-07T04:59:47.047Z,937.66
2018-07-07T05:00:47.058Z,937.67
2018-07-07T05:01:47.078Z,937.62
2018-07-07T05:02:47.198Z,937.66
2018-07-07T05:03:47.104Z,937.68
2018-07-07T05:04:47.110Z,937.65
2018-07-07T05:05:47.150Z,937.62
2018-07-07T05:06:47.140Z,937.62
2018-07-07T05:07:47.296Z,937.63
2018-07-07T05:08:47.185Z,937.63
2018-07-07T05:09:47.176Z,937.59
2018-07-07T05:10:47.211Z,937.60
2018-07-07T05:11:47.223Z,937.57
2018-07-07T05:12:47.317Z,937.52
2018-07-07T05:13:47.221Z,937.51
2018-07-07T05:14:47.232Z,937.52
2018-07-07T05:15:47.247Z,937.50
2018-07-07T05:16:47.288Z,937.47
2018-07-07T05:17:47.434Z,937.45
2018-07-07T05:18:47.285Z,937.45
2018-07-07T05:19:47.294Z,937.44
2018-07-07T05:20:47.303Z,937.41
2018-07-07T05:21:47.348Z,937.44
2018-07-07T05:22:47.459Z,937.43
2018-07-07T05:23:47.357Z,937.39
2018-07-07T05:24:47.355Z,937.39
2018-07-07T05:25:47.367Z,937.38
2018-07-07T05:26:47.381Z,937.34
2018-07-07T05:27:47.521Z,937.32
2018-07-07T05:28:47.406Z,937.38
2018-07-07T05:29:47.447Z,937.35
2018-07-07T05:30:47.430Z,937.35
2018-07-07T05:31:47.530Z,937.30
2018-07-07T05:32:47.580Z,937.32
2018-07-07T05:33:47.499Z,937.33
2018-07-07T05:34:47.477Z,937.30
2018-07-07T05:35:47.525Z,937.26
2018-07-07T05:36:47.532Z,937.29
2018-07-07T05:37:47.631Z,937.27
2018-07-07T05:38:47.542Z,937.23
2018-07-07T05:39:47.568Z,937.27
2018-07-07T05:40:47.586Z,937.29
2018-07-07T05:41:47.564Z,937.25
2018-07-07T05:42:47.735Z,937.24
2018-07-07T05:43:47.623Z,937.27
2018-07-07T05:44:47.630Z,937.23
2018-07-07T05:45:47.620Z,937.28
2018-07-07T05:46:47.661Z,937.24
2018-07-07T05:47:47.676Z,937.20
2018-07-07T05:48:47.780Z,937.20
2018-07-07T05:49:47.681Z,937.17
2018-07-07T05:50:47.682Z,937.18
2018-07-07T05:51:47.706Z,937.14
2018-07-07T05:52:47.728Z,937.08
2018-07-07T05:53:47.724Z,937.10
2018-07-07T05:54:47.825Z,937.13
2018-07-07T05:55:47.741Z,937.10
2018-07-07T05:56:47.765Z,937.08
2018-07-07T05:57:47.777Z,937.08
2018-07-07T05:58:47.791Z,937.08
2018-07-07T05:59:47.952Z,937.08
2018-07-07T06:00:47.801Z,937.07
2018-07-07T06:01:47.813Z,937.11
2018-07-07T06:02:47.852Z,937.13
2018-07-07T06:03:47.850Z,937.12
2018-07-07T06:04:47.980Z,937.16
2018-07-07T06:05:47.898Z,937.08
2018-07-07T06:06:47.904Z,937.11
2018-07-07T06:07:47.896Z,937.12
2018-07-07T06:08:47.900Z,937.14
2018-07-07T06:09:48.048Z,937.16
2018-07-07T06:10:47.923Z,937.13
2018-07-07T06:11:47.958Z,937.14
2018-07-07T06:12:47.952Z,937.11
2018-07-07T06:13:47.967Z,937.11
2018-07-07T06:14:48.134Z,937.08
2018-07-07T06:15:47.988Z,937.08
2018-07-07T06:16:48.011Z,937.07
2018-07-07T06:17:48.014Z,937.06
2018-07-07T06:18:48.029Z,937.07
2018-07-07T06:19:48.197Z,937.08
2018-07-07T06:20:48.076Z,937.09
2018-07-07T06:21:48.105Z,937.07
2018-07-07T06:22:48.080Z,937.05
2018-07-07T06:23:48.093Z,937.04
2018-07-07T06:24:48.279Z,937.05
2018-07-07T06:25:48.120Z,937.04
2018-07-07T06:26:48.172Z,937.01
2018-07-07T06:27:48.166Z,937.05
2018-07-07T06:28:48.148Z,937.08
2018-07-07T06:29:48.271Z,937.05
2018-07-07T06:30:48.203Z,937.04
2018-07-07T06:31:48.190Z,937.00
2018-07-07T06:32:48.234Z,937.01
2018-07-07T06:33:48.215Z,937.02
2018-07-07T06:34:48.376Z,937.00
2018-07-07T06:35:48.238Z,936.98
2018-07-07T06:36:48.278Z,936.94
2018-07-07T06:37:48.266Z,936.94
2018-07-07T06:38:48.287Z,936.93
2018-07-07T06:39:48.459Z,936.93
2018-07-07T06:40:48.330Z,936.90
2018-07-07T06:41:48.315Z,936.93
2018-07-07T06:42:48.326Z,936.89
2018-07-07T06:43:48.366Z,936.89
2018-07-07T06:44:48.524Z,936.88
2018-07-07T06:45:48.374Z,936.92
2018-07-07T06:46:48.378Z,936.90
2018-07-07T06:47:48.406Z,936.92
2018-07-07T06:48:48.432Z,936.90
2018-07-07T06:49:48.596Z,936.96
2018-07-07T06:50:48.425Z,936.93
2018-07-07T06:51:48.464Z,936.93
2018-07-07T06:52:48.456Z,936.92
2018-07-07T06:53:48.556Z,936.93
2018-07-07T06:54:48.624Z,936.93
2018-07-07T06:55:48.490Z,936.95
2018-07-07T06:56:48.501Z,936.93
2018-07-07T06:57:48.514Z,936.95
2018-07-07T06:58:48.539Z,936.91
2018-07-07T06:59:48.641Z,936.92
2018-07-07T07:00:48.550Z,936.91
2018-07-07T07:01:48.586Z,936.91
2018-07-07T07:02:48.605Z,936.88
2018-07-07T07:03:48.587Z,936.88
2018-07-07T07:04:48.781Z,936.86
2018-07-07T07:05:48.608Z,936.90
2018-07-07T07:06:48.624Z,936.82
2018-07-07T07:07:48.633Z,936.83
2018-07-07T07:08:48.642Z,936.83
2018-07-07T07:09:48.658Z,936.85
2018-07-07T07:10:48.769Z,936.87
2018-07-07T07:11:48.699Z,936.87
2018-07-07T07:12:48.722Z,936.90
2018-07-07T07:13:48.723Z,936.85
2018-07-07T07:14:48.755Z,936.84
2018-07-07T07:15:48.890Z,936.86
2018-07-07T07:16:48.748Z,936.83
2018-07-07T07:17:48.783Z,936.83
2018-07-07T07:18:48.798Z,936.87
2018-07-07T07:19:48.812Z,936.85
2018-07-07T07:20:48.910Z,936.90
2018-07-07T07:21:48.826Z,936.94
2018-07-07T07:22:48.835Z,936.93
2018-07-07T07:23:48.831Z,936.91
2018-07-07T07:24:48.843Z,936.95
2018-07-07T07:25:49.035Z,936.92
2018-07-07T07:26:48.876Z,936.97
2018-07-07T07:27:48.879Z,937.00
2018-07-07T07:28:48.893Z,937.03
2018-07-07T07:29:48.930Z,937.03
2018-07-07T07:30:49.092Z,936.99
2018-07-07T07:31:48.955Z,936.99
2018-07-07T07:32:48.944Z,936.96
2018-07-07T07:33:48.980Z,936.92
2018-07-07T07:34:48.979Z,936.96
2018-07-07T07:35:49.109Z,936.95
2018-07-07T07:36:49.091Z,936.92
2018-07-07T07:37:49.036Z,936.93
2018-07-07T07:38:49.046Z,936.90
2018-07-07T07:39:49.036Z,936.90
2018-07-07T07:40:49.215Z,936.89
2018-07-07T07:41:49.088Z,936.90
2018-07-07T07:42:49.094Z,936.87
2018-07-07T07:43:49.080Z,936.87
2018-07-07T07:44:49.118Z,936.84
2018-07-07T07:45:49.202Z,936.89
2018-07-07T07:46:49.119Z,936.87
2018-07-07T07:47:49.126Z,936.91
2018-07-07T07:48:49.144Z,936.95
2018-07-07T07:49:49.159Z,936.96
2018-07-07T07:50:49.272Z,936.96
2018-07-07T07:51:49.208Z,937.01
2018-07-07T07:52:49.257Z,937.00
2018-07-07T07:53:49.215Z,936.99
2018-07-07T07:54:49.229Z,937.00
2018-07-07T07:55:49.349Z,937.05
2018-07-07T07:56:49.237Z,937.04
2018-07-07T07:57:49.272Z,937.04
2018-07-07T07:58:49.261Z,937.03
2018-07-07T07:59:49.274Z,937.03
2018-07-07T08:00:49.384Z,937.01
2018-07-07T08:01:49.323Z,936.94
2018-07-07T08:02:49.309Z,936.96
2018-07-07T08:03:49.321Z,936.98
2018-07-07T08:04:49.405Z,936.96
2018-07-07T08:05:49.524Z,936.96
2018-07-07T08:06:49.388Z,936.96
2018-07-07T08:07:49.373Z,936.97
2018-07-07T08:08:49.411Z,936.97
2018-07-07T08:09:49.422Z,936.98
2018-07-07T08:10:49.511Z,936.96
2018-07-07T08:11:49.424Z,936.98
2018-07-07T08:12:49.462Z,936.99
2018-07-07T08:13:49.449Z,936.97
2018-07-07T08:14:49.475Z,936.99
2018-07-07T08:15:49.578Z,936.95
2018-07-07T08:16:49.508Z,936.94
2018-07-07T08:17:49.525Z,936.97
2018-07-07T08:18:49.537Z,936.97
2018-07-07T08:19:49.530Z,937.00
2018-07-07T08:20:49.713Z,937.03
2018-07-07T08:21:49.543Z,937.04
2018-07-07T08:22:49.592Z,937.03
2018-07-07T08:23:49.581Z,937.03
2018-07-07T08:24:49.596Z,937.06
2018-07-07T08:25:49.610Z,937.02
2018-07-07T08:26:49.737Z,937.04
2018-07-07T08:27:49.616Z,937.06
2018-07-07T08:28:49.637Z,937.04
2018-07-07T08:29:49.637Z,937.01
2018-07-07T08:30:49.656Z,937.05
2018-07-07T08:31:49.690Z,937.05
2018-07-07T08:32:49.832Z,937.04
2018-07-07T08:33:49.693Z,937.09
2018-07-07T08:34:49.700Z,937.08
2018-07-07T08:35:49.732Z,937.09
2018-07-07T08:36:49.752Z,937.11
2018-07-07T08:37:49.897Z,937.16
2018-07-07T08:38:49.778Z,937.16
2018-07-07T08:39:49.767Z,937.11
2018-07-07T08:40:49.800Z,937.16
2018-07-07T08:41:49.907Z,937.11
2018-07-07T08:42:49.954Z,937.11
2018-07-07T08:43:49.812Z,937.16
2018-07-07T08:44:49.822Z,937.15
2018-07-07T08:45:49.848Z,937.23
2018-07-07T08:46:49.857Z,937.25
2018-07-07T08:47:49.993Z,937.22
2018-07-07T08:48:49.875Z,937.29
2018-07-07T08:49:49.916Z,937.23
2018-07-07T08:50:49.921Z,937.20
2018-07-07T08:51:49.934Z,937.19
2018-07-07T08:52:50.077Z,937.19
2018-07-07T08:53:49.931Z,937.20
2018-07-07T08:54:49.959Z,937.18
2018-07-07T08:55:49.960Z,937.20
2018-07-07T08:56:49.966Z,937.20
2018-07-07T08:57:50.081Z,937.22
2018-07-07T08:58:50.020Z,937.19
2018-07-07T08:59:50.001Z,937.18
2018-07-07T09:00:50.046Z,937.25
2018-07-07T09:01:50.058Z,937.21
2018-07-07T09:02:50.149Z,937.21
2018-07-07T09:03:50.059Z,937.23
2018-07-07T09:04:50.094Z,937.26
2018-07-07T09:05:50.085Z,937.25
2018-07-07T09:06:50.117Z,937.25
2018-07-07T09:07:50.203Z,937.26
2018-07-07T09:08:50.142Z,937.27
2018-07-07T09:09:50.127Z,937.27
2018-07-07T09:10:50.136Z,937.29
2018-07-07T09:11:50.159Z,937.34
2018-07-07T09:12:50.261Z,937.33
2018-07-07T09:13:50.178Z,937.32
2018-07-07T09:14:50.189Z,937.34
2018-07-07T09:15:50.193Z,937.35
2018-07-07T09:16:50.223Z,937.35
2018-07-07T09:17:50.320Z,937.36
2018-07-07T09:18:50.299Z,937.31
2018-07-07T09:19:50.269Z,937.38
2018-07-07T09:20:50.260Z,937.34
2018-07-07T09:21:50.264Z,937.39
2018-07-07T09:22:50.430Z,937.42
2018-07-07T09:23:50.317Z,937.45
2018-07-07T09:24:50.331Z,937.52
2018-07-07T09:25:50.314Z,937.50
2018-07-07T09:26:50.328Z,937.54
2018-07-07T09:27:50.464Z,937.56
2018-07-07T09:28:50.378Z,937.54
2018-07-07T09:29:50.391Z,937.56
2018-07-07T09:30:50.409Z,937.58
2018-07-07T09:31:50.411Z,937.62
2018-07-07T09:32:50.548Z,937.57
2018-07-07T09:33:50.426Z,937.57
2018-07-07T09:34:50.436Z,937.60
2018-07-07T09:35:50.433Z,937.53
2018-07-07T09:36:50.458Z,937.61
2018-07-07T09:37:50.614Z,937.61
2018-07-07T09:38:50.511Z,937.64
2018-07-07T09:39:50.479Z,937.65
2018-07-07T09:40:50.516Z,937.64
2018-07-07T09:41:50.531Z,937.61
2018-07-07T09:42:50.684Z,937.59
2018-07-07T09:43:50.526Z,937.56
2018-07-07T09:44:50.541Z,937.56
2018-07-07T09:45:50.578Z,937.59
2018-07-07T09:46:50.590Z,937.54
2018-07-07T09:47:50.577Z,937.59
2018-07-07T09:48:50.690Z,937.55
2018-07-07T09:49:50.630Z,937.56
2018-07-07T09:50:50.608Z,937.55
2018-07-07T09:51:50.618Z,937.60
2018-07-07T09:52:50.669Z,937.59
2018-07-07T09:53:50.645Z,937.59
2018-07-07T09:54:50.801Z,937.59
2018-07-07T09:55:50.696Z,937.60
2018-07-07T09:56:50.707Z,937.57
2018-07-07T09:57:50.704Z,937.54
2018-07-07T09:58:50.735Z,937.52
2018-07-07T09:59:50.864Z,937.53
2018-07-07T10:00:50.733Z,937.54
2018-07-07T10:01:50.742Z,937.59
2018-07-07T10:02:50.749Z,937.61
2018-07-07T10:03:50.761Z,937.61
2018-07-07T10:04:50.952Z,937.63
2018-07-07T10:05:50.792Z,937.65
2018-07-07T10:06:50.820Z,937.66
2018-07-07T10:07:50.815Z,937.65
2018-07-07T10:08:50.819Z,937.60
2018-07-07T10:09:50.930Z,937.63
2018-07-07T10:10:50.843Z,937.62
2018-07-07T10:11:50.884Z,937.66
2018-07-07T10:12:50.866Z,937.66
2018-07-07T10:13:50.911Z,937.69
2018-07-07T10:14:50.996Z,937.64
2018-07-07T10:15:50.921Z,937.63
2018-07-07T10:16:50.943Z,937.68
2018-07-07T10:17:50.942Z,937.61
2018-07-07T10:18:50.965Z,937.64
2018-07-07T10:19:51.115Z,937.62
2018-07-07T10:20:50.970Z,937.61
2018-07-07T10:21:50.977Z,937.71
2018-07-07T10:22:51.008Z,937.70
2018-07-07T10:23:51.023Z,937.69
2018-07-07T10:24:51.166Z,937.71
2018-07-07T10:25:51.031Z,937.76
2018-07-07T10:26:51.057Z,937.76
2018-07-07T10:27:51.069Z,937.73
2018-07-07T10:28:51.082Z,937.77
2018-07-07T10:29:51.168Z,937.75
2018-07-07T10:30:51.095Z,937.75
2018-07-07T10:31:51.092Z,937.75
2018-07-07T10:32:51.133Z,937.78
2018-07-07T10:33:51.117Z,937.80
2018-07-07T10:34:51.282Z,937.81
2018-07-07T10:35:51.140Z,937.87
2018-07-07T10:36:51.153Z,937.88
2018-07-07T10:37:51.193Z,937.88
2018-07-07T10:38:51.207Z,937.86
2018-07-07T10:39:51.309Z,937.87
2018-07-07T10:40:51.206Z,937.85
2018-07-07T10:41:51.226Z,937.91
2018-07-07T10:42:51.251Z,937.93
2018-07-07T10:43:51.264Z,937.92
2018-07-07T10:44:51.355Z,937.96
2018-07-07T10:45:51.472Z,937.96
2018-07-07T10:46:51.307Z,938.00
2018-07-07T10:47:51.323Z,937.97
2018-07-07T10:48:51.312Z,937.99
2018-07-07T10:49:51.478Z,938.00
2018-07-07T10:50:51.341Z,937.98
2018-07-07T10:51:51.354Z,937.99
2018-07-07T10:52:51.351Z,938.00
2018-07-07T10:53:51.377Z,938.02
2018-07-07T10:54:51.480Z,938.06
2018-07-07T10:55:51.417Z,938.04
2018-07-07T10:56:51.408Z,937.98
2018-07-07T10:57:51.428Z,938.01
2018-07-07T10:58:51.503Z,938.03
2018-07-07T10:59:51.574Z,938.04
2018-07-07T11:00:51.491Z,938.04
2018-07-07T11:01:51.496Z,938.01
2018-07-07T11:02:51.493Z,938.05
2018-07-07T11:03:51.497Z,938.06
2018-07-07T11:04:51.614Z,938.11
2018-07-07T11:05:51.528Z,938.08
2018-07-07T11:06:51.540Z,938.09
2018-07-07T11:07:51.555Z,938.11
2018-07-07T11:08:51.593Z,938.12
2018-07-07T11:09:51.703Z,938.08
2018-07-07T11:10:51.591Z,938.08
2018-07-07T11:11:51.698Z,938.11
2018-07-07T11:12:51.630Z,938.16
2018-07-07T11:13:51.658Z,938.19
2018-07-07T11:14:51.748Z,938.22
2018-07-07T11:15:51.660Z,938.25
2018-07-07T11:16:51.707Z,938.26
2018-07-07T11:17:51.697Z,938.25
2018-07-07T11:18:51.735Z,938.25
2018-07-07T11:19:51.866Z,938.29
2018-07-07T11:20:51.731Z,938.30
2018-07-07T11:21:51.744Z,938.29
2018-07-07T11:22:51.786Z,938.27
2018-07-07T11:23:51.772Z,938.31
2018-07-07T11:24:51.936Z,938.26
2018-07-07T11:25:51.833Z,938.27
2018-07-07T11:26:51.827Z,938.25
2018-07-07T11:27:51.844Z,938.33
2018-07-07T11:28:51.842Z,938.31
2018-07-07T11:29:52.180Z,938.34
2018-07-07T11:30:51.891Z,938.30
2018-07-07T11:31:51.918Z,938.34
2018-07-07T11:32:51.905Z,938.31
2018-07-07T11:33:51.920Z,938.29
2018-07-07T11:34:52.095Z,938.29
2018-07-07T11:35:51.965Z,938.30
2018-07-07T11:36:51.972Z,938.31
2018-07-07T11:37:52.011Z,938.31
2018-07-07T11:38:52.029Z,938.34
2018-07-07T11:39:52.114Z,938.30
2018-07-07T11:40:52.032Z,938.29
2018-07-07T11:41:52.043Z,938.32
2018-07-07T11:42:52.057Z,938.36
2018-07-07T11:43:52.103Z,938.38
2018-07-07T11:44:52.185Z,938.35
2018-07-07T11:45:52.104Z,938.37
2018-07-07T11:46:52.146Z,938.36
2018-07-07T11:47:52.147Z,938.36
2018-07-07T11:48:52.162Z,938.35
2018-07-07T11:49:52.316Z,938.36
2018-07-07T11:50:52.188Z,938.37
2018-07-07T11:51:52.202Z,938.37
2018-07-07T11:52:52.215Z,938.44
2018-07-07T11:53:52.255Z,938.44
2018-07-07T11:54:52.411Z,938.47
2018-07-07T11:55:52.286Z,938.48
2018-07-07T11:56:52.275Z,938.50
2018-07-07T11:57:52.322Z,938.51
2018-07-07T11:58:52.312Z,938.48
2018-07-07T11:59:52.425Z,938.48
2018-07-07T12:00:52.346Z,938.46
2018-07-07T12:01:52.436Z,938.52
2018-07-07T12:02:52.383Z,938.53
2018-07-07T12:03:52.421Z,938.53
2018-07-07T12:04:52.636Z,938.53
2018-07-07T12:05:52.431Z,938.59
2018-07-07T12:06:52.447Z,938.62
2018-07-07T12:08:00.830Z,938.61
2018-07-07T12:08:52.484Z,938.60
2018-07-07T12:09:52.658Z,938.62
2018-07-07T12:10:52.517Z,938.60
2018-07-07T12:11:52.534Z,938.62
2018-07-07T12:12:52.545Z,938.64
2018-07-07T12:13:52.579Z,938.68
2018-07-07T12:14:52.618Z,938.65
2018-07-07T12:15:52.757Z,938.67
2018-07-07T12:16:52.646Z,938.68
2018-07-07T12:17:52.666Z,938.67
2018-07-07T12:18:52.660Z,938.69
2018-07-07T12:19:52.683Z,938.71
2018-07-07T12:20:52.853Z,938.74
2018-07-07T12:21:52.752Z,938.73
2018-07-07T12:22:52.761Z,938.69
2018-07-07T12:23:52.748Z,938.70
2018-07-07T12:24:52.852Z,938.73
2018-07-07T12:25:52.963Z,938.68
2018-07-07T12:26:52.806Z,938.67
2018-07-07T12:27:52.848Z,938.74
2018-07-07T12:28:52.838Z,938.73
2018-07-07T12:29:52.867Z,938.78